sensor_id;sensor_type;location;lat;lon;timestamp;P1;durP1;ratioP1;P2;durP2;ratioP2
27003;SDS011;14546;47.590;19.022;2023-06-26T00:01:51;11.80;;;9.93;;
27003;SDS011;14546;47.590;19.022;2023-06-26T00:04:17;13.20;;;10.48;;
27003;SDS011;14546;47.590;19.022;2023-06-26T00:06:43;13.95;;;10.10;;
27003;SDS011;14546;47.590;19.022;2023-06-26T00:09:09;15.02;;;10.65;;
27003;SDS011;14546;47.590;19.022;2023-06-26T00:11:37;12.23;;;10.10;;
27003;SDS011;14546;47.590;19.022;2023-06-26T00:14:03;14.18;;;10.40;;
27003;SDS011;14546;47.590;19.022;2023-06-26T00:16:29;14.27;;;10.45;;
27003;SDS011;14546;47.590;19.022;2023-06-26T00:18:56;15.05;;;10.45;;
27003;SDS011;14546;47.590;19.022;2023-06-26T00:21:23;12.10;;;10.13;;
27003;SDS011;14546;47.590;19.022;2023-06-26T00:23:50;14.55;;;10.82;;
27003;SDS011;14546;47.590;19.022;2023-06-26T00:26:16;12.18;;;9.85;;
27003;SDS011;14546;47.590;19.022;2023-06-26T00:28:42;13.52;;;10.52;;
27003;SDS011;14546;47.590;19.022;2023-06-26T00:31:08;20.08;;;10.93;;
27003;SDS011;14546;47.590;19.022;2023-06-26T00:33:34;13.80;;;10.68;;
27003;SDS011;14546;47.590;19.022;2023-06-26T00:36:01;12.75;;;10.55;;
27003;SDS011;14546;47.590;19.022;2023-06-26T00:38:27;12.55;;;10.43;;
27003;SDS011;14546;47.590;19.022;2023-06-26T00:40:54;17.45;;;10.73;;
27003;SDS011;14546;47.590;19.022;2023-06-26T00:43:21;11.63;;;9.77;;
27003;SDS011;14546;47.590;19.022;2023-06-26T00:45:47;15.55;;;10.55;;
27003;SDS011;14546;47.590;19.022;2023-06-26T00:48:13;16.02;;;10.85;;
27003;SDS011;14546;47.590;19.022;2023-06-26T00:50:40;19.08;;;11.07;;
27003;SDS011;14546;47.590;19.022;2023-06-26T00:53:08;14.70;;;11.00;;
27003;SDS011;14546;47.590;19.022;2023-06-26T00:55:34;14.10;;;11.50;;
27003;SDS011;14546;47.590;19.022;2023-06-26T00:58:00;18.95;;;12.25;;
27003;SDS011;14546;47.590;19.022;2023-06-26T01:00:26;15.68;;;10.50;;
27003;SDS011;14546;47.590;19.022;2023-06-26T01:02:53;17.77;;;10.48;;
27003;SDS011;14546;47.590;19.022;2023-06-26T01:05:25;13.00;;;10.43;;
27003;SDS011;14546;47.590;19.022;2023-06-26T01:07:53;16.70;;;10.90;;
27003;SDS011;14546;47.590;19.022;2023-06-26T01:10:22;15.70;;;11.50;;
27003;SDS011;14546;47.590;19.022;2023-06-26T01:12:49;16.15;;;10.60;;
27003;SDS011;14546;47.590;19.022;2023-06-26T01:15:15;13.88;;;10.82;;
27003;SDS011;14546;47.590;19.022;2023-06-26T01:17:42;13.32;;;10.70;;
27003;SDS011;14546;47.590;19.022;2023-06-26T01:20:10;13.10;;;11.05;;
27003;SDS011;14546;47.590;19.022;2023-06-26T01:26:35;14.77;;;11.70;;
27003;SDS011;14546;47.590;19.022;2023-06-26T01:28:45;15.45;;;11.18;;
27003;SDS011;14546;47.590;19.022;2023-06-26T01:31:12;19.85;;;11.20;;
27003;SDS011;14546;47.590;19.022;2023-06-26T01:33:39;14.50;;;10.95;;
27003;SDS011;14546;47.590;19.022;2023-06-26T01:36:07;16.17;;;10.43;;
27003;SDS011;14546;47.590;19.022;2023-06-26T01:38:32;14.20;;;10.68;;
27003;SDS011;14546;47.590;19.022;2023-06-26T01:40:59;23.02;;;10.88;;
27003;SDS011;14546;47.590;19.022;2023-06-26T01:46:11;16.83;;;11.50;;
27003;SDS011;14546;47.590;19.022;2023-06-26T01:48:49;14.52;;;11.13;;
27003;SDS011;14546;47.590;19.022;2023-06-26T01:51:15;17.80;;;11.15;;
27003;SDS011;14546;47.590;19.022;2023-06-26T01:53:45;13.40;;;11.35;;
27003;SDS011;14546;47.590;19.022;2023-06-26T01:56:13;12.32;;;11.02;;
27003;SDS011;14546;47.590;19.022;2023-06-26T01:58:43;15.00;;;11.38;;
27003;SDS011;14546;47.590;19.022;2023-06-26T02:01:11;14.60;;;11.48;;
27003;SDS011;14546;47.590;19.022;2023-06-26T02:03:37;16.58;;;11.98;;
27003;SDS011;14546;47.590;19.022;2023-06-26T02:06:03;16.27;;;11.40;;
27003;SDS011;14546;47.590;19.022;2023-06-26T02:08:28;15.07;;;11.70;;
27003;SDS011;14546;47.590;19.022;2023-06-26T02:10:54;14.50;;;11.55;;
27003;SDS011;14546;47.590;19.022;2023-06-26T02:13:20;13.75;;;10.85;;
27003;SDS011;14546;47.590;19.022;2023-06-26T02:15:46;16.40;;;11.40;;
27003;SDS011;14546;47.590;19.022;2023-06-26T02:18:12;13.55;;;10.85;;
27003;SDS011;14546;47.590;19.022;2023-06-26T02:20:38;13.35;;;11.35;;
27003;SDS011;14546;47.590;19.022;2023-06-26T02:23:05;15.02;;;11.45;;
27003;SDS011;14546;47.590;19.022;2023-06-26T02:25:31;15.60;;;11.52;;
27003;SDS011;14546;47.590;19.022;2023-06-26T02:27:57;14.05;;;11.63;;
27003;SDS011;14546;47.590;19.022;2023-06-26T02:30:23;19.05;;;11.73;;
27003;SDS011;14546;47.590;19.022;2023-06-26T02:32:49;16.23;;;12.45;;
27003;SDS011;14546;47.590;19.022;2023-06-26T02:35:15;17.25;;;12.70;;
27003;SDS011;14546;47.590;19.022;2023-06-26T02:37:40;14.35;;;12.00;;
27003;SDS011;14546;47.590;19.022;2023-06-26T02:40:06;14.02;;;11.52;;
27003;SDS011;14546;47.590;19.022;2023-06-26T02:42:34;14.80;;;11.25;;
27003;SDS011;14546;47.590;19.022;2023-06-26T02:45:00;19.20;;;12.35;;
27003;SDS011;14546;47.590;19.022;2023-06-26T02:47:26;15.05;;;11.27;;
27003;SDS011;14546;47.590;19.022;2023-06-26T02:49:52;19.90;;;11.77;;
27003;SDS011;14546;47.590;19.022;2023-06-26T02:52:18;13.95;;;10.75;;
27003;SDS011;14546;47.590;19.022;2023-06-26T02:54:44;15.85;;;11.25;;
27003;SDS011;14546;47.590;19.022;2023-06-26T02:57:10;20.98;;;11.38;;
27003;SDS011;14546;47.590;19.022;2023-06-26T02:59:40;14.07;;;11.65;;
27003;SDS011;14546;47.590;19.022;2023-06-26T03:02:05;14.52;;;11.20;;
27003;SDS011;14546;47.590;19.022;2023-06-26T03:04:31;16.48;;;11.43;;
27003;SDS011;14546;47.590;19.022;2023-06-26T03:07:02;17.08;;;12.00;;
27003;SDS011;14546;47.590;19.022;2023-06-26T03:09:28;13.40;;;11.20;;
27003;SDS011;14546;47.590;19.022;2023-06-26T03:11:54;14.55;;;11.70;;
27003;SDS011;14546;47.590;19.022;2023-06-26T03:14:21;14.82;;;11.38;;
27003;SDS011;14546;47.590;19.022;2023-06-26T03:16:46;14.98;;;12.02;;
27003;SDS011;14546;47.590;19.022;2023-06-26T03:19:12;18.08;;;12.18;;
27003;SDS011;14546;47.590;19.022;2023-06-26T03:21:38;17.65;;;11.75;;
27003;SDS011;14546;47.590;19.022;2023-06-26T03:24:05;15.60;;;11.68;;
27003;SDS011;14546;47.590;19.022;2023-06-26T03:26:30;14.70;;;11.77;;
27003;SDS011;14546;47.590;19.022;2023-06-26T03:28:57;14.70;;;12.35;;
27003;SDS011;14546;47.590;19.022;2023-06-26T03:31:23;16.27;;;12.38;;
27003;SDS011;14546;47.590;19.022;2023-06-26T03:33:49;16.30;;;12.05;;
27003;SDS011;14546;47.590;19.022;2023-06-26T03:36:15;15.07;;;12.07;;
27003;SDS011;14546;47.590;19.022;2023-06-26T03:38:40;16.80;;;10.98;;
27003;SDS011;14546;47.590;19.022;2023-06-26T03:41:06;13.25;;;11.57;;
27003;SDS011;14546;47.590;19.022;2023-06-26T03:43:32;12.32;;;10.63;;
27003;SDS011;14546;47.590;19.022;2023-06-26T03:45:58;18.23;;;11.90;;
27003;SDS011;14546;47.590;19.022;2023-06-26T03:48:24;20.70;;;12.35;;
27003;SDS011;14546;47.590;19.022;2023-06-26T03:50:50;15.40;;;11.48;;
27003;SDS011;14546;47.590;19.022;2023-06-26T03:53:16;14.45;;;11.23;;
27003;SDS011;14546;47.590;19.022;2023-06-26T03:55:42;15.75;;;11.32;;
27003;SDS011;14546;47.590;19.022;2023-06-26T03:58:08;14.40;;;11.35;;
27003;SDS011;14546;47.590;19.022;2023-06-26T04:00:34;16.02;;;12.43;;
27003;SDS011;14546;47.590;19.022;2023-06-26T04:03:00;13.38;;;11.20;;
27003;SDS011;14546;47.590;19.022;2023-06-26T04:05:28;14.13;;;11.88;;
27003;SDS011;14546;47.590;19.022;2023-06-26T04:07:54;14.82;;;11.13;;
27003;SDS011;14546;47.590;19.022;2023-06-26T04:10:20;13.35;;;10.93;;
27003;SDS011;14546;47.590;19.022;2023-06-26T04:12:46;18.88;;;12.25;;
27003;SDS011;14546;47.590;19.022;2023-06-26T04:15:13;15.85;;;10.70;;
27003;SDS011;14546;47.590;19.022;2023-06-26T04:17:38;16.58;;;11.07;;
27003;SDS011;14546;47.590;19.022;2023-06-26T04:20:06;14.15;;;11.70;;
27003;SDS011;14546;47.590;19.022;2023-06-26T04:22:33;14.77;;;11.07;;
27003;SDS011;14546;47.590;19.022;2023-06-26T04:25:01;13.32;;;10.55;;
27003;SDS011;14546;47.590;19.022;2023-06-26T04:27:28;13.00;;;10.70;;
27003;SDS011;14546;47.590;19.022;2023-06-26T04:29:55;20.15;;;11.77;;
27003;SDS011;14546;47.590;19.022;2023-06-26T04:32:21;13.32;;;10.82;;
27003;SDS011;14546;47.590;19.022;2023-06-26T04:34:48;14.45;;;10.57;;
27003;SDS011;14546;47.590;19.022;2023-06-26T04:37:16;13.23;;;10.13;;
27003;SDS011;14546;47.590;19.022;2023-06-26T04:39:43;17.75;;;11.18;;
27003;SDS011;14546;47.590;19.022;2023-06-26T04:42:09;12.55;;;10.60;;
27003;SDS011;14546;47.590;19.022;2023-06-26T04:44:37;11.50;;;10.13;;
27003;SDS011;14546;47.590;19.022;2023-06-26T04:47:04;16.17;;;10.07;;
27003;SDS011;14546;47.590;19.022;2023-06-26T04:49:30;12.27;;;10.05;;
27003;SDS011;14546;47.590;19.022;2023-06-26T04:51:57;16.48;;;9.82;;
27003;SDS011;14546;47.590;19.022;2023-06-26T04:54:25;17.67;;;10.40;;
27003;SDS011;14546;47.590;19.022;2023-06-26T04:56:51;19.90;;;10.23;;
27003;SDS011;14546;47.590;19.022;2023-06-26T04:59:17;12.95;;;10.02;;
27003;SDS011;14546;47.590;19.022;2023-06-26T05:01:45;12.85;;;9.95;;
27003;SDS011;14546;47.590;19.022;2023-06-26T05:04:14;21.13;;;10.55;;
27003;SDS011;14546;47.590;19.022;2023-06-26T05:06:40;15.13;;;10.05;;
27003;SDS011;14546;47.590;19.022;2023-06-26T05:09:08;15.57;;;9.85;;
27003;SDS011;14546;47.590;19.022;2023-06-26T05:11:35;16.45;;;9.57;;
27003;SDS011;14546;47.590;19.022;2023-06-26T05:14:01;17.30;;;9.80;;
27003;SDS011;14546;47.590;19.022;2023-06-26T05:16:28;14.68;;;9.43;;
27003;SDS011;14546;47.590;19.022;2023-06-26T05:18:53;16.45;;;10.13;;
27003;SDS011;14546;47.590;19.022;2023-06-26T05:21:22;13.55;;;10.02;;
27003;SDS011;14546;47.590;19.022;2023-06-26T05:23:49;20.42;;;10.15;;
27003;SDS011;14546;47.590;19.022;2023-06-26T05:26:15;12.38;;;8.90;;
27003;SDS011;14546;47.590;19.022;2023-06-26T05:28:42;10.95;;;9.10;;
27003;SDS011;14546;47.590;19.022;2023-06-26T05:31:14;13.20;;;8.40;;
27003;SDS011;14546;47.590;19.022;2023-06-26T05:33:42;17.50;;;9.88;;
27003;SDS011;14546;47.590;19.022;2023-06-26T05:36:09;18.10;;;9.27;;
27003;SDS011;14546;47.590;19.022;2023-06-26T05:38:37;14.68;;;9.38;;
27003;SDS011;14546;47.590;19.022;2023-06-26T05:41:03;13.32;;;8.70;;
27003;SDS011;14546;47.590;19.022;2023-06-26T05:43:30;13.13;;;8.40;;
27003;SDS011;14546;47.590;19.022;2023-06-26T05:45:56;15.38;;;8.88;;
27003;SDS011;14546;47.590;19.022;2023-06-26T05:48:23;9.45;;;8.18;;
27003;SDS011;14546;47.590;19.022;2023-06-26T05:50:48;12.35;;;8.55;;
27003;SDS011;14546;47.590;19.022;2023-06-26T05:53:15;12.70;;;8.65;;
27003;SDS011;14546;47.590;19.022;2023-06-26T05:55:41;13.60;;;8.30;;
27003;SDS011;14546;47.590;19.022;2023-06-26T05:58:07;11.77;;;8.70;;
27003;SDS011;14546;47.590;19.022;2023-06-26T06:00:37;13.93;;;8.88;;
27003;SDS011;14546;47.590;19.022;2023-06-26T06:03:05;12.63;;;8.68;;
27003;SDS011;14546;47.590;19.022;2023-06-26T06:05:31;20.27;;;8.98;;
27003;SDS011;14546;47.590;19.022;2023-06-26T06:07:56;12.77;;;8.75;;
27003;SDS011;14546;47.590;19.022;2023-06-26T06:10:23;13.68;;;8.77;;
27003;SDS011;14546;47.590;19.022;2023-06-26T06:12:48;14.48;;;9.05;;
27003;SDS011;14546;47.590;19.022;2023-06-26T06:15:14;10.93;;;9.35;;
27003;SDS011;14546;47.590;19.022;2023-06-26T06:17:41;13.60;;;8.32;;
27003;SDS011;14546;47.590;19.022;2023-06-26T06:20:07;16.45;;;8.93;;
27003;SDS011;14546;47.590;19.022;2023-06-26T06:22:34;11.10;;;8.02;;
27003;SDS011;14546;47.590;19.022;2023-06-26T06:25:01;14.98;;;8.45;;
27003;SDS011;14546;47.590;19.022;2023-06-26T06:27:27;11.27;;;8.10;;
27003;SDS011;14546;47.590;19.022;2023-06-26T06:29:54;10.23;;;7.47;;
27003;SDS011;14546;47.590;19.022;2023-06-26T06:32:20;14.35;;;7.32;;
27003;SDS011;14546;47.590;19.022;2023-06-26T06:34:46;16.75;;;7.85;;
27003;SDS011;14546;47.590;19.022;2023-06-26T06:37:12;16.00;;;7.78;;
27003;SDS011;14546;47.590;19.022;2023-06-26T06:39:38;12.20;;;7.90;;
27003;SDS011;14546;47.590;19.022;2023-06-26T06:42:05;9.48;;;7.05;;
27003;SDS011;14546;47.590;19.022;2023-06-26T06:44:32;10.93;;;6.72;;
27003;SDS011;14546;47.590;19.022;2023-06-26T06:46:58;12.25;;;7.63;;
27003;SDS011;14546;47.590;19.022;2023-06-26T06:49:25;12.93;;;7.32;;
27003;SDS011;14546;47.590;19.022;2023-06-26T06:51:51;11.52;;;6.93;;
27003;SDS011;14546;47.590;19.022;2023-06-26T06:54:18;12.75;;;6.95;;
27003;SDS011;14546;47.590;19.022;2023-06-26T06:56:45;7.47;;;6.57;;
27003;SDS011;14546;47.590;19.022;2023-06-26T06:59:11;8.45;;;6.80;;
27003;SDS011;14546;47.590;19.022;2023-06-26T07:01:37;12.00;;;7.00;;
27003;SDS011;14546;47.590;19.022;2023-06-26T07:04:04;8.70;;;7.00;;
27003;SDS011;14546;47.590;19.022;2023-06-26T07:06:30;13.18;;;7.97;;
27003;SDS011;14546;47.590;19.022;2023-06-26T07:08:57;8.98;;;6.57;;
27003;SDS011;14546;47.590;19.022;2023-06-26T07:11:24;10.18;;;7.50;;
27003;SDS011;14546;47.590;19.022;2023-06-26T07:13:50;9.10;;;7.25;;
27003;SDS011;14546;47.590;19.022;2023-06-26T07:16:16;8.00;;;6.32;;
27003;SDS011;14546;47.590;19.022;2023-06-26T07:18:44;8.75;;;6.90;;
27003;SDS011;14546;47.590;19.022;2023-06-26T07:21:10;12.07;;;7.30;;
27003;SDS011;14546;47.590;19.022;2023-06-26T07:23:37;10.13;;;7.53;;
27003;SDS011;14546;47.590;19.022;2023-06-26T07:26:04;11.60;;;7.25;;
27003;SDS011;14546;47.590;19.022;2023-06-26T07:28:31;11.10;;;6.88;;
27003;SDS011;14546;47.590;19.022;2023-06-26T07:30:58;8.52;;;7.30;;
27003;SDS011;14546;47.590;19.022;2023-06-26T07:33:24;14.90;;;6.90;;
27003;SDS011;14546;47.590;19.022;2023-06-26T07:35:51;10.32;;;7.38;;
27003;SDS011;14546;47.590;19.022;2023-06-26T07:38:18;9.35;;;7.20;;
27003;SDS011;14546;47.590;19.022;2023-06-26T07:40:44;11.30;;;7.45;;
27003;SDS011;14546;47.590;19.022;2023-06-26T07:43:11;11.98;;;7.80;;
27003;SDS011;14546;47.590;19.022;2023-06-26T07:45:37;10.60;;;7.15;;
27003;SDS011;14546;47.590;19.022;2023-06-26T07:48:03;12.52;;;7.50;;
27003;SDS011;14546;47.590;19.022;2023-06-26T07:50:30;12.73;;;7.80;;
27003;SDS011;14546;47.590;19.022;2023-06-26T07:52:57;12.48;;;8.10;;
27003;SDS011;14546;47.590;19.022;2023-06-26T07:55:23;15.23;;;8.38;;
27003;SDS011;14546;47.590;19.022;2023-06-26T07:57:53;12.75;;;7.70;;
27003;SDS011;14546;47.590;19.022;2023-06-26T08:00:22;17.25;;;7.50;;
27003;SDS011;14546;47.590;19.022;2023-06-26T08:02:49;12.85;;;8.27;;
27003;SDS011;14546;47.590;19.022;2023-06-26T08:05:16;19.33;;;7.45;;
27003;SDS011;14546;47.590;19.022;2023-06-26T08:07:42;11.27;;;7.55;;
27003;SDS011;14546;47.590;19.022;2023-06-26T08:10:09;15.18;;;7.82;;
27003;SDS011;14546;47.590;19.022;2023-06-26T08:12:37;10.57;;;7.20;;
27003;SDS011;14546;47.590;19.022;2023-06-26T08:15:05;10.20;;;7.25;;
27003;SDS011;14546;47.590;19.022;2023-06-26T08:17:34;11.57;;;7.88;;
27003;SDS011;14546;47.590;19.022;2023-06-26T08:20:02;12.20;;;6.97;;
27003;SDS011;14546;47.590;19.022;2023-06-26T08:22:29;9.90;;;7.22;;
27003;SDS011;14546;47.590;19.022;2023-06-26T08:24:56;10.65;;;7.20;;
27003;SDS011;14546;47.590;19.022;2023-06-26T08:27:24;8.65;;;7.32;;
27003;SDS011;14546;47.590;19.022;2023-06-26T08:29:51;10.40;;;6.85;;
27003;SDS011;14546;47.590;19.022;2023-06-26T08:32:19;15.27;;;7.95;;
27003;SDS011;14546;47.590;19.022;2023-06-26T08:34:45;8.93;;;7.28;;
27003;SDS011;14546;47.590;19.022;2023-06-26T08:37:11;14.23;;;7.30;;
27003;SDS011;14546;47.590;19.022;2023-06-26T08:39:38;10.23;;;6.50;;
27003;SDS011;14546;47.590;19.022;2023-06-26T08:42:05;12.88;;;6.95;;
27003;SDS011;14546;47.590;19.022;2023-06-26T08:44:32;15.13;;;7.22;;
27003;SDS011;14546;47.590;19.022;2023-06-26T08:46:59;8.35;;;6.40;;
27003;SDS011;14546;47.590;19.022;2023-06-26T08:49:46;9.60;;;6.20;;
27003;SDS011;14546;47.590;19.022;2023-06-26T08:52:15;11.02;;;6.55;;
27003;SDS011;14546;47.590;19.022;2023-06-26T08:54:45;8.15;;;6.07;;
27003;SDS011;14546;47.590;19.022;2023-06-26T08:57:14;8.30;;;6.20;;
27003;SDS011;14546;47.590;19.022;2023-06-26T08:59:41;19.13;;;6.68;;
27003;SDS011;14546;47.590;19.022;2023-06-26T09:02:07;17.42;;;8.00;;
27003;SDS011;14546;47.590;19.022;2023-06-26T09:04:34;22.15;;;6.88;;
27003;SDS011;14546;47.590;19.022;2023-06-26T09:07:01;12.77;;;6.82;;
27003;SDS011;14546;47.590;19.022;2023-06-26T09:09:28;8.52;;;5.75;;
27003;SDS011;14546;47.590;19.022;2023-06-26T09:11:56;8.73;;;5.60;;
27003;SDS011;14546;47.590;19.022;2023-06-26T09:14:22;7.93;;;6.07;;
27003;SDS011;14546;47.590;19.022;2023-06-26T09:16:50;7.45;;;5.85;;
27003;SDS011;14546;47.590;19.022;2023-06-26T09:19:18;5.63;;;5.00;;
27003;SDS011;14546;47.590;19.022;2023-06-26T09:21:45;8.30;;;5.75;;
27003;SDS011;14546;47.590;19.022;2023-06-26T09:24:15;8.82;;;5.80;;
27003;SDS011;14546;47.590;19.022;2023-06-26T09:26:42;14.00;;;7.07;;
27003;SDS011;14546;47.590;19.022;2023-06-26T09:29:08;13.27;;;6.93;;
27003;SDS011;14546;47.590;19.022;2023-06-26T09:31:38;11.80;;;6.90;;
27003;SDS011;14546;47.590;19.022;2023-06-26T09:34:05;10.85;;;7.10;;
27003;SDS011;14546;47.590;19.022;2023-06-26T09:36:32;6.28;;;5.43;;
27003;SDS011;14546;47.590;19.022;2023-06-26T09:39:06;7.40;;;5.78;;
27003;SDS011;14546;47.590;19.022;2023-06-26T09:41:37;7.82;;;5.72;;
27003;SDS011;14546;47.590;19.022;2023-06-26T09:44:05;6.78;;;6.07;;
27003;SDS011;14546;47.590;19.022;2023-06-26T09:46:33;8.80;;;6.70;;
27003;SDS011;14546;47.590;19.022;2023-06-26T09:49:03;9.52;;;6.55;;
27003;SDS011;14546;47.590;19.022;2023-06-26T09:51:30;14.82;;;6.85;;
27003;SDS011;14546;47.590;19.022;2023-06-26T09:53:58;8.73;;;6.45;;
27003;SDS011;14546;47.590;19.022;2023-06-26T09:56:25;9.70;;;6.45;;
27003;SDS011;14546;47.590;19.022;2023-06-26T09:58:52;9.00;;;7.15;;
27003;SDS011;14546;47.590;19.022;2023-06-26T10:01:24;7.72;;;6.05;;
27003;SDS011;14546;47.590;19.022;2023-06-26T10:03:51;12.63;;;6.00;;
27003;SDS011;14546;47.590;19.022;2023-06-26T10:06:19;7.20;;;5.60;;
27003;SDS011;14546;47.590;19.022;2023-06-26T10:08:46;8.93;;;5.90;;
27003;SDS011;14546;47.590;19.022;2023-06-26T10:11:14;7.25;;;6.05;;
27003;SDS011;14546;47.590;19.022;2023-06-26T10:13:42;6.57;;;5.50;;
27003;SDS011;14546;47.590;19.022;2023-06-26T10:16:12;8.63;;;5.80;;
27003;SDS011;14546;47.590;19.022;2023-06-26T10:18:39;9.25;;;6.20;;
27003;SDS011;14546;47.590;19.022;2023-06-26T10:21:06;6.82;;;5.97;;
27003;SDS011;14546;47.590;19.022;2023-06-26T10:23:32;8.07;;;5.57;;
27003;SDS011;14546;47.590;19.022;2023-06-26T10:26:00;7.88;;;5.95;;
27003;SDS011;14546;47.590;19.022;2023-06-26T10:28:27;7.82;;;6.03;;
27003;SDS011;14546;47.590;19.022;2023-06-26T10:30:54;7.28;;;6.05;;
27003;SDS011;14546;47.590;19.022;2023-06-26T10:33:21;9.57;;;6.20;;
27003;SDS011;14546;47.590;19.022;2023-06-26T10:35:48;7.95;;;6.05;;
27003;SDS011;14546;47.590;19.022;2023-06-26T10:38:14;12.40;;;5.53;;
27003;SDS011;14546;47.590;19.022;2023-06-26T10:40:44;9.63;;;5.72;;
27003;SDS011;14546;47.590;19.022;2023-06-26T10:43:11;9.68;;;6.22;;
27003;SDS011;14546;47.590;19.022;2023-06-26T10:45:48;9.75;;;5.60;;
27003;SDS011;14546;47.590;19.022;2023-06-26T10:48:17;8.45;;;5.97;;
27003;SDS011;14546;47.590;19.022;2023-06-26T10:50:43;11.00;;;5.95;;
27003;SDS011;14546;47.590;19.022;2023-06-26T10:53:22;5.95;;;5.00;;
27003;SDS011;14546;47.590;19.022;2023-06-26T10:58:34;6.63;;;5.40;;
27003;SDS011;14546;47.590;19.022;2023-06-26T11:03:39;9.15;;;5.25;;
27003;SDS011;14546;47.590;19.022;2023-06-26T11:06:08;9.77;;;5.60;;
27003;SDS011;14546;47.590;19.022;2023-06-26T11:11:11;10.57;;;5.40;;
27003;SDS011;14546;47.590;19.022;2023-06-26T11:13:37;8.18;;;5.00;;
27003;SDS011;14546;47.590;19.022;2023-06-26T11:16:04;6.10;;;4.95;;
27003;SDS011;14546;47.590;19.022;2023-06-26T11:18:31;7.35;;;4.90;;
27003;SDS011;14546;47.590;19.022;2023-06-26T11:21:07;5.93;;;5.15;;
27003;SDS011;14546;47.590;19.022;2023-06-26T11:23:34;7.65;;;5.32;;
27003;SDS011;14546;47.590;19.022;2023-06-26T11:26:15;6.45;;;5.30;;
27003;SDS011;14546;47.590;19.022;2023-06-26T11:28:48;7.22;;;5.18;;
27003;SDS011;14546;47.590;19.022;2023-06-26T11:31:27;9.20;;;4.93;;
27003;SDS011;14546;47.590;19.022;2023-06-26T11:33:55;5.95;;;5.32;;
27003;SDS011;14546;47.590;19.022;2023-06-26T11:36:25;6.03;;;5.18;;
27003;SDS011;14546;47.590;19.022;2023-06-26T11:41:21;5.38;;;4.50;;
27003;SDS011;14546;47.590;19.022;2023-06-26T11:43:47;5.68;;;5.05;;
27003;SDS011;14546;47.590;19.022;2023-06-26T11:46:15;5.72;;;4.85;;
27003;SDS011;14546;47.590;19.022;2023-06-26T11:48:41;5.22;;;4.72;;
27003;SDS011;14546;47.590;19.022;2023-06-26T11:51:07;6.18;;;4.97;;
27003;SDS011;14546;47.590;19.022;2023-06-26T11:53:38;5.88;;;4.30;;
27003;SDS011;14546;47.590;19.022;2023-06-26T11:56:09;8.60;;;4.97;;
27003;SDS011;14546;47.590;19.022;2023-06-26T11:58:36;5.72;;;4.70;;
27003;SDS011;14546;47.590;19.022;2023-06-26T12:01:02;5.97;;;4.47;;
27003;SDS011;14546;47.590;19.022;2023-06-26T12:03:29;6.28;;;4.53;;
27003;SDS011;14546;47.590;19.022;2023-06-26T12:05:55;8.05;;;4.72;;
27003;SDS011;14546;47.590;19.022;2023-06-26T12:08:22;5.38;;;4.63;;
27003;SDS011;14546;47.590;19.022;2023-06-26T12:10:48;4.85;;;4.15;;
27003;SDS011;14546;47.590;19.022;2023-06-26T12:13:14;9.00;;;4.47;;
27003;SDS011;14546;47.590;19.022;2023-06-26T12:15:40;6.32;;;4.45;;
27003;SDS011;14546;47.590;19.022;2023-06-26T12:18:09;8.57;;;4.88;;
27003;SDS011;14546;47.590;19.022;2023-06-26T12:20:39;4.55;;;3.97;;
27003;SDS011;14546;47.590;19.022;2023-06-26T12:23:11;6.90;;;4.50;;
27003;SDS011;14546;47.590;19.022;2023-06-26T12:25:38;5.38;;;4.18;;
27003;SDS011;14546;47.590;19.022;2023-06-26T12:28:05;12.35;;;4.78;;
27003;SDS011;14546;47.590;19.022;2023-06-26T12:30:45;4.90;;;4.38;;
27003;SDS011;14546;47.590;19.022;2023-06-26T12:33:14;6.53;;;4.80;;
27003;SDS011;14546;47.590;19.022;2023-06-26T12:38:10;6.22;;;4.38;;
27003;SDS011;14546;47.590;19.022;2023-06-26T12:40:49;12.48;;;5.07;;
27003;SDS011;14546;47.590;19.022;2023-06-26T12:43:25;4.63;;;4.20;;
27003;SDS011;14546;47.590;19.022;2023-06-26T12:45:55;8.20;;;4.22;;
27003;SDS011;14546;47.590;19.022;2023-06-26T12:48:36;6.55;;;4.50;;
27003;SDS011;14546;47.590;19.022;2023-06-26T12:51:09;7.03;;;4.60;;
27003;SDS011;14546;47.590;19.022;2023-06-26T12:53:35;12.05;;;4.97;;
27003;SDS011;14546;47.590;19.022;2023-06-26T12:56:02;9.90;;;4.30;;
27003;SDS011;14546;47.590;19.022;2023-06-26T12:58:29;9.93;;;4.15;;
27003;SDS011;14546;47.590;19.022;2023-06-26T13:00:56;5.35;;;4.35;;
27003;SDS011;14546;47.590;19.022;2023-06-26T13:03:24;5.18;;;4.18;;
27003;SDS011;14546;47.590;19.022;2023-06-26T13:05:50;5.68;;;4.03;;
27003;SDS011;14546;47.590;19.022;2023-06-26T13:08:17;7.40;;;5.00;;
27003;SDS011;14546;47.590;19.022;2023-06-26T13:10:43;8.57;;;4.97;;
27003;SDS011;14546;47.590;19.022;2023-06-26T13:13:10;10.63;;;4.82;;
27003;SDS011;14546;47.590;19.022;2023-06-26T13:15:36;6.85;;;4.80;;
27003;SDS011;14546;47.590;19.022;2023-06-26T13:18:02;7.28;;;4.70;;
27003;SDS011;14546;47.590;19.022;2023-06-26T13:20:28;5.95;;;4.60;;
27003;SDS011;14546;47.590;19.022;2023-06-26T13:22:55;7.03;;;4.97;;
27003;SDS011;14546;47.590;19.022;2023-06-26T13:25:21;5.15;;;4.65;;
27003;SDS011;14546;47.590;19.022;2023-06-26T13:27:48;7.30;;;4.88;;
27003;SDS011;14546;47.590;19.022;2023-06-26T13:30:14;5.40;;;4.90;;
27003;SDS011;14546;47.590;19.022;2023-06-26T13:32:41;7.90;;;4.80;;
27003;SDS011;14546;47.590;19.022;2023-06-26T13:35:07;4.82;;;4.32;;
27003;SDS011;14546;47.590;19.022;2023-06-26T13:37:34;6.88;;;4.97;;
27003;SDS011;14546;47.590;19.022;2023-06-26T13:40:01;8.98;;;5.05;;
27003;SDS011;14546;47.590;19.022;2023-06-26T13:42:28;7.47;;;4.18;;
27003;SDS011;14546;47.590;19.022;2023-06-26T13:44:54;5.40;;;4.90;;
27003;SDS011;14546;47.590;19.022;2023-06-26T13:47:21;12.52;;;4.75;;
27003;SDS011;14546;47.590;19.022;2023-06-26T13:49:47;4.63;;;4.05;;
27003;SDS011;14546;47.590;19.022;2023-06-26T13:52:13;4.45;;;3.95;;
27003;SDS011;14546;47.590;19.022;2023-06-26T13:54:39;4.90;;;4.03;;
27003;SDS011;14546;47.590;19.022;2023-06-26T13:57:06;5.53;;;4.38;;
27003;SDS011;14546;47.590;19.022;2023-06-26T13:59:33;4.50;;;4.10;;
27003;SDS011;14546;47.590;19.022;2023-06-26T14:01:59;6.65;;;4.25;;
27003;SDS011;14546;47.590;19.022;2023-06-26T14:04:25;6.82;;;4.80;;
27003;SDS011;14546;47.590;19.022;2023-06-26T14:06:52;5.15;;;4.47;;
27003;SDS011;14546;47.590;19.022;2023-06-26T14:09:18;5.20;;;4.25;;
27003;SDS011;14546;47.590;19.022;2023-06-26T14:11:44;4.57;;;4.13;;
27003;SDS011;14546;47.590;19.022;2023-06-26T14:14:10;6.80;;;5.05;;
27003;SDS011;14546;47.590;19.022;2023-06-26T14:16:36;9.45;;;5.35;;
27003;SDS011;14546;47.590;19.022;2023-06-26T14:19:05;6.13;;;4.93;;
27003;SDS011;14546;47.590;19.022;2023-06-26T14:21:31;9.30;;;4.85;;
27003;SDS011;14546;47.590;19.022;2023-06-26T14:23:58;11.45;;;4.63;;
27003;SDS011;14546;47.590;19.022;2023-06-26T14:26:24;5.07;;;4.50;;
27003;SDS011;14546;47.590;19.022;2023-06-26T14:28:50;5.47;;;4.18;;
27003;SDS011;14546;47.590;19.022;2023-06-26T14:31:16;5.60;;;4.90;;
27003;SDS011;14546;47.590;19.022;2023-06-26T14:33:42;12.68;;;5.30;;
27003;SDS011;14546;47.590;19.022;2023-06-26T14:36:08;5.32;;;4.35;;
27003;SDS011;14546;47.590;19.022;2023-06-26T14:38:34;5.57;;;4.20;;
27003;SDS011;14546;47.590;19.022;2023-06-26T14:41:00;7.78;;;4.57;;